Time,TemperatureF,DewpointF,PressureIn,WindDirection,WindDirectionDegrees,WindSpeedMPH,WindSpeedGustMPH,Humidity,HourlyPrecipIn,Conditions,Clouds,dailyrainin,SoftwareType,DateUTC
2013-01-03 00:03:00,9.9,5.0,30.61,NW,325,2.3,2.3,80,0.00,CLR,,0.00,WeatherDisplay:10.37,2013-01-03 08:03:00,
2013-01-03 00:08:00,9.7,4.8,30.61,NW,323,2.0,2.0,80,0.00,CLR,,0.00,WeatherDisplay:10.37,2013-01-03 08:08:00,
2013-01-03 00:13:00,9.3,4.4,30.61,SW,232,1.1,0.0,80,0.00,CLR,,0.00,WeatherDisplay:10.37,2013-01-03 08:13:00,
2013-01-03 00:18:00,9.2,4.3,30.60,SW,232,0.0,0.0,80,0.00,CLR,,0.00,WeatherDisplay:10.37,2013-01-03 08:18:00,
2013-01-03 00:23:00,9.2,4.3,30.60,SW,232,0.0,0.0,80,0.00,CLR,,0.00,WeatherDisplay:10.37,2013-01-03 08:23:00,
2013-01-03 00:28:00,9.0,4.1,30.60,SW,232,1.0,0.0,80,0.00,CLR,,0.00,WeatherDisplay:10.37,2013-01-03 08:28:00,
2013-01-03 00:33:00,8.8,3.9,30.60,SW,232,1.1,1.1,80,0.00,CLR,,0.00,WeatherDisplay:10.37,2013-01-03 08:33:00,
2013-01-03 00:38:00,8.8,3.9,30.60,SW,232,0.0,0.0,80,0.00,CLR,,0.00,WeatherDisplay:10.37,2013-01-03 08:38:00,
2013-01-03 00:43:00,8.6,3.7,30.60,SW,232,0.0,0.0,80,0.00,CLR,,0.00,WeatherDisplay:10.37,2013-01-03 08:43:00,
2013-01-03 00:48:00,8.6,3.7,30.60,SW,232,0.0,0.0,80,0.00,CLR,,0.00,WeatherDisplay:10.37,2013-01-03 08:48:00,
2013-01-03 00:53:00,8.4,3.5,30.60,SW,232,0.0,0.0,80,0.00,CLR,,0.00,WeatherDisplay:10.37,2013-01-03 08:53:00,
2013-01-03 00:58:00,8.4,3.2,30.60,SW,232,0.0,0.0,79,0.00,CLR,,0.00,WeatherDisplay:10.37,2013-01-03 08:58:00,
2013-01-03 01:03:00,8.4,3.2,30.59,SW,232,0.0,0.0,79,0.00,CLR,,0.00,WeatherDisplay:10.37,2013-01-03 09:03:00,
2013-01-03 01:08:00,8.3,3.1,30.59,SW,232,0.0,0.0,79,0.00,CLR,,0.00,WeatherDisplay:10.37,2013-01-03 09:08:00,
2013-01-03 01:13:00,8.3,3.1,30.59,SW,232,0.0,0.0,79,0.00,CLR,,0.00,WeatherDisplay:10.37,2013-01-03 09:13:00,
2013-01-03 01:18:00,8.1,2.9,30.59,SW,232,0.0,0.0,79,0.00,CLR,,0.00,WeatherDisplay:10.37,2013-01-03 09:18:00,
2013-01-03 01:23:00,7.9,2.7,30.59,SW,232,0.0,0.0,79,0.00,CLR,,0.00,WeatherDisplay:10.37,2013-01-03 09:23:00,
2013-01-03 01:28:00,7.7,2.5,30.59,SW,232,0.0,0.0,79,0.00,CLR,,0.00,WeatherDisplay:10.37,2013-01-03 09:28:00,
2013-01-03 01:33:00,7.4,2.3,30.60,SW,232,0.0,0.0,79,0.00,CLR,,0.00,WeatherDisplay:10.37,2013-01-03 09:33:00,
2013-01-03 01:38:00,7.2,1.8,30.60,SW,232,0.0,0.0,78,0.00,CLR,,0.00,WeatherDisplay:10.37,2013-01-03 09:38:00,
2013-01-03 01:43:00,7.2,1.8,30.60,SW,232,0.0,0.0,78,0.00,CLR,,0.00,WeatherDisplay:10.37,2013-01-03 09:43:00,
2013-01-03 01:48:00,7.2,2.1,30.60,SW,232,0.0,0.0,79,0.00,CLR,,0.00,WeatherDisplay:10.37,2013-01-03 09:48:00,
2013-01-03 01:53:00,7.4,2.3,30.60,SW,232,0.0,0.0,79,0.00,CLR,,0.00,WeatherDisplay:10.37,2013-01-03 09:53:00,
2013-01-03 01:58:00,7.4,2.3,30.60,SW,232,0.0,0.0,79,0.00,CLR,,0.00,WeatherDisplay:10.37,2013-01-03 09:58:00,
2013-01-03 02:03:00,7.6,2.7,30.60,SW,232,0.0,0.0,80,0.00,CLR,,0.00,WeatherDisplay:10.37,2013-01-03 10:03:00,
2013-01-03 02:08:00,7.7,2.8,30.60,SW,232,1.1,1.1,80,0.00,CLR,,0.00,WeatherDisplay:10.37,2013-01-03 10:08:00,
2013-01-03 02:13:00,7.9,3.0,30.60,WNW,282,1.0,1.0,80,0.00,CLR,,0.00,WeatherDisplay:10.37,2013-01-03 10:13:00,
2013-01-03 02:18:00,8.1,3.2,30.60,WNW,282,1.1,1.1,80,0.00,CLR,,0.00,WeatherDisplay:10.37,2013-01-03 10:18:00,
2013-01-03 02:23:00,8.3,3.4,30.60,WNW,282,1.1,0.0,80,0.00,CLR,,0.00,WeatherDisplay:10.37,2013-01-03 10:23:00,
2013-01-03 02:28:00,8.4,3.5,30.60,WNW,282,0.0,0.0,80,0.00,CLR,,0.00,WeatherDisplay:10.37,2013-01-03 10:28:00,
2013-01-03 02:33:00,8.4,3.5,30.60,WNW,282,0.0,0.0,80,0.00,CLR,,0.00,WeatherDisplay:10.37,2013-01-03 10:33:00,
2013-01-03 02:38:00,8.4,3.5,30.60,WNW,282,1.1,0.0,80,0.00,CLR,,0.00,WeatherDisplay:10.37,2013-01-03 10:38:00,
2013-01-03 02:43:00,8.6,3.7,30.59,WNW,282,1.1,1.1,80,0.00,CLR,,0.00,WeatherDisplay:10.37,2013-01-03 10:43:00,
2013-01-03 02:48:00,8.6,3.7,30.59,WNW,282,1.0,1.0,80,0.00,CLR,,0.00,WeatherDisplay:10.37,2013-01-03 10:48:00,
2013-01-03 02:53:00,8.6,3.7,30.58,WNW,282,0.0,0.0,80,0.00,CLR,,0.00,WeatherDisplay:10.37,2013-01-03 10:53:00,
2013-01-03 02:58:00,8.6,3.7,30.59,WNW,282,1.1,1.1,80,0.00,CLR,,0.00,WeatherDisplay:10.37,2013-01-03 10:58:00,
2013-01-03 03:03:00,8.6,3.7,30.59,WNW,282,0.0,0.0,80,0.00,CLR,,0.00,WeatherDisplay:10.37,2013-01-03 11:03:00,
2013-01-03 03:08:00,8.6,3.7,30.59,WNW,282,2.0,2.0,80,0.00,CLR,,0.00,WeatherDisplay:10.37,2013-01-03 11:08:00,
2013-01-03 03:13:00,8.6,3.7,30.59,WNW,282,0.0,0.0,80,0.00,CLR,,0.00,WeatherDisplay:10.37,2013-01-03 11:13:00,
2013-01-03 03:18:00,8.4,3.2,30.59,WNW,282,0.0,0.0,79,0.00,CLR,,0.00,WeatherDisplay:10.37,2013-01-03 11:18:00,
2013-01-03 03:23:00,8.4,3.5,30.59,WNW,282,0.0,0.0,80,0.00,CLR,,0.00,WeatherDisplay:10.37,2013-01-03 11:23:00,
2013-01-03 03:28:00,8.4,3.2,30.59,WNW,282,2.0,2.0,79,0.00,CLR,,0.00,WeatherDisplay:10.37,2013-01-03 11:28:00,
2013-01-03 03:33:00,8.3,3.1,30.59,WNW,282,2.3,2.3,79,0.00,CLR,,0.00,WeatherDisplay:10.37,2013-01-03 11:33:00,
2013-01-03 03:38:00,8.1,2.9,30.58,WNW,282,0.0,0.0,79,0.00,CLR,,0.00,WeatherDisplay:10.37,2013-01-03 11:38:00,
2013-01-03 03:43:00,7.9,2.7,30.58,WNW,282,0.0,0.0,79,0.00,CLR,,0.00,WeatherDisplay:10.37,2013-01-03 11:43:00,
2013-01-03 03:48:00,7.7,2.5,30.58,WNW,282,0.0,0.0,79,0.00,CLR,,0.00,WeatherDisplay:10.37,2013-01-03 11:48:00,
2013-01-03 03:53:00,7.6,2.4,30.58,WNW,282,1.1,0.0,79,0.00,CLR,,0.00,WeatherDisplay:10.37,2013-01-03 11:53:00,
2013-01-03 03:58:00,7.4,2.3,30.59,WNW,282,0.0,0.0,79,0.00,CLR,,0.00,WeatherDisplay:10.37,2013-01-03 11:58:00,
2013-01-03 04:03:00,7.4,2.0,30.58,WNW,282,0.0,0.0,78,0.00,CLR,,0.00,WeatherDisplay:10.37,2013-01-03 12:03:00,
2013-01-03 04:08:00,7.2,1.8,30.58,WNW,282,0.0,0.0,78,0.00,CLR,,0.00,WeatherDisplay:10.37,2013-01-03 12:08:00,
2013-01-03 04:13:00,7.0,1.6,30.58,WNW,282,0.0,0.0,78,0.00,CLR,,0.00,WeatherDisplay:10.37,2013-01-03 12:13:00,
2013-01-03 04:18:00,7.0,1.6,30.58,WNW,282,0.0,0.0,78,0.00,CLR,,0.00,WeatherDisplay:10.37,2013-01-03 12:18:00,
2013-01-03 04:23:00,6.9,1.5,30.58,WNW,282,0.0,0.0,78,0.00,CLR,,0.00,WeatherDisplay:10.37,2013-01-03 12:23:00,
2013-01-03 04:28:00,6.7,1.3,30.58,WNW,282,0.0,0.0,78,0.00,CLR,,0.00,WeatherDisplay:10.37,2013-01-03 12:28:00,
2013-01-03 04:33:00,6.5,1.1,30.58,WNW,282,0.0,0.0,78,0.00,CLR,,0.00,WeatherDisplay:10.37,2013-01-03 12:33:00,
2013-01-03 04:38:00,6.5,1.1,30.57,West,260,0.0,0.0,78,0.00,CLR,,0.00,WeatherDisplay:10.37,2013-01-03 12:38:00,
2013-01-03 04:43:00,6.3,0.9,30.58,West,260,2.0,2.0,78,0.00,CLR,,0.00,WeatherDisplay:10.37,2013-01-03 12:43:00,
2013-01-03 04:48:00,6.3,0.9,30.58,West,260,1.0,1.0,78,0.00,CLR,,0.00,WeatherDisplay:10.37,2013-01-03 12:48:00,
2013-01-03 04:53:00,6.3,0.9,30.58,West,260,2.0,2.0,78,0.00,CLR,,0.00,WeatherDisplay:10.37,2013-01-03 12:53:00,
2013-01-03 04:58:00,6.1,0.7,30.58,West,260,2.3,2.3,78,0.00,CLR,,0.00,WeatherDisplay:10.37,2013-01-03 12:58:00,
2013-01-03 05:03:00,6.0,0.6,30.57,West,260,2.3,0.0,78,0.00,CLR,,0.00,WeatherDisplay:10.37,2013-01-03 13:03:00,
2013-01-03 05:08:00,5.6,0.2,30.57,West,260,1.1,1.1,78,0.00,CLR,,0.00,WeatherDisplay:10.37,2013-01-03 13:08:00,
2013-01-03 05:13:00,5.4,-0.2,30.57,West,260,2.3,2.3,77,0.00,CLR,,0.00,WeatherDisplay:10.37,2013-01-03 13:13:00,
2013-01-03 05:18:00,4.8,-0.8,30.58,West,260,2.3,2.3,77,0.00,CLR,,0.00,WeatherDisplay:10.37,2013-01-03 13:18:00,
2013-01-03 05:23:00,4.5,-1.1,30.58,West,260,1.0,1.0,77,0.00,CLR,,0.00,WeatherDisplay:10.37,2013-01-03 13:23:00,
2013-01-03 05:28:00,4.1,-1.5,30.59,West,260,1.1,0.0,77,0.00,CLR,,0.00,WeatherDisplay:10.37,2013-01-03 13:28:00,
2013-01-03 05:33:00,4.1,-1.5,30.58,West,260,0.0,0.0,77,0.00,CLR,,0.00,WeatherDisplay:10.37,2013-01-03 13:33:00,
2013-01-03 05:38:00,3.9,-1.7,30.58,West,261,0.0,0.0,77,0.00,CLR,,0.00,WeatherDisplay:10.37,2013-01-03 13:38:00,
2013-01-03 05:43:00,3.5,-2.4,30.58,West,260,0.0,0.0,76,0.00,CLR,,0.00,WeatherDisplay:10.37,2013-01-03 13:43:00,
2013-01-03 05:48:00,3.2,-2.7,30.58,West,260,0.0,0.0,76,0.00,CLR,,0.00,WeatherDisplay:10.37,2013-01-03 13:48:00,
2013-01-03 05:53:00,2.8,-3.1,30.58,West,260,0.0,0.0,76,0.00,CLR,,0.00,WeatherDisplay:10.37,2013-01-03 13:53:00,
2013-01-03 05:58:00,2.6,-3.2,30.58,West,260,0.0,0.0,76,0.00,CLR,,0.00,WeatherDisplay:10.37,2013-01-03 13:58:00,
2013-01-03 06:03:00,2.6,-3.2,30.58,West,260,0.0,0.0,76,0.00,CLR,,0.00,WeatherDisplay:10.37,2013-01-03 14:03:00,
2013-01-03 06:08:00,2.2,-3.9,30.59,WSW,243,2.3,2.3,75,0.00,CLR,,0.00,WeatherDisplay:10.37,2013-01-03 14:08:00,
2013-01-03 06:13:00,2.0,-4.1,30.59,WSW,243,0.0,0.0,75,0.00,CLR,,0.00,WeatherDisplay:10.37,2013-01-03 14:13:00,
2013-01-03 06:18:00,1.8,-4.3,30.58,WSW,243,0.0,0.0,75,0.00,CLR,,0.00,WeatherDisplay:10.37,2013-01-03 14:18:00,
2013-01-03 06:23:00,1.8,-4.3,30.58,WSW,243,0.0,0.0,75,0.00,CLR,,0.00,WeatherDisplay:10.37,2013-01-03 14:23:00,
2013-01-03 06:28:00,1.8,-4.3,30.58,WSW,243,2.0,2.0,75,0.00,CLR,,0.00,WeatherDisplay:10.37,2013-01-03 14:28:00,
2013-01-03 06:33:00,1.7,-4.4,30.58,WSW,243,2.3,2.3,75,0.00,CLR,,0.00,WeatherDisplay:10.37,2013-01-03 14:33:00,
2013-01-03 06:38:00,1.5,-4.6,30.59,WSW,243,2.3,2.3,75,0.00,CLR,,0.00,WeatherDisplay:10.37,2013-01-03 14:38:00,
2013-01-03 06:43:00,1.5,-4.3,30.58,WSW,243,2.3,2.3,76,0.00,CLR,,0.00,WeatherDisplay:10.37,2013-01-03 14:43:00,
2013-01-03 06:48:00,1.5,-4.6,30.59,WSW,243,2.3,2.3,75,0.00,CLR,,0.00,WeatherDisplay:10.37,2013-01-03 14:48:00,
2013-01-03 06:53:00,1.5,-4.6,30.59,WSW,243,0.0,0.0,75,0.00,CLR,,0.00,WeatherDisplay:10.37,2013-01-03 14:53:00,
2013-01-03 06:58:00,1.5,-4.6,30.58,WSW,243,0.0,0.0,75,0.00,CLR,,0.00,WeatherDisplay:10.37,2013-01-03 14:58:00,
2013-01-03 07:03:00,1.5,-4.6,30.59,WSW,243,2.3,0.0,75,0.00,CLR,,0.00,WeatherDisplay:10.37,2013-01-03 15:03:00,
2013-01-03 07:08:00,1.5,-4.3,30.59,WSW,241,2.3,2.3,76,0.00,CLR,,0.00,WeatherDisplay:10.37,2013-01-03 15:08:00,
2013-01-03 07:13:00,1.7,-4.1,30.58,WSW,241,1.1,0.0,76,0.00,CLR,,0.00,WeatherDisplay:10.37,2013-01-03 15:13:00,
2013-01-03 07:18:00,1.8,-4.0,30.59,WSW,241,1.1,1.1,76,0.00,CLR,,0.00,WeatherDisplay:10.37,2013-01-03 15:18:00,
2013-01-03 07:23:00,1.7,-4.4,30.59,WSW,241,0.0,0.0,75,0.00,CLR,,0.00,WeatherDisplay:10.37,2013-01-03 15:23:00,
2013-01-03 07:28:00,1.7,-4.4,30.59,WSW,241,0.0,0.0,75,0.00,CLR,,0.00,WeatherDisplay:10.37,2013-01-03 15:28:00,
2013-01-03 07:33:00,1.5,-4.6,30.59,WSW,241,0.0,0.0,75,0.00,CLR,,0.00,WeatherDisplay:10.37,2013-01-03 15:33:00,
2013-01-03 07:38:00,1.3,-4.8,30.60,WSW,241,0.0,0.0,75,0.00,CLR,,0.00,WeatherDisplay:10.37,2013-01-03 15:38:00,
2013-01-03 07:43:00,0.9,-5.2,30.60,WSW,241,0.0,0.0,75,0.00,CLR,,0.00,WeatherDisplay:10.37,2013-01-03 15:43:00,
2013-01-03 07:48:00,1.1,-5.0,30.60,WSW,241,0.0,0.0,75,0.00,CLR,,0.00,WeatherDisplay:10.37,2013-01-03 15:48:00,
2013-01-03 07:53:00,0.9,-5.5,30.60,WSW,241,0.0,0.0,74,0.00,CLR,,0.00,WeatherDisplay:10.37,2013-01-03 15:53:00,
2013-01-03 07:58:00,0.7,-5.6,30.60,WSW,241,1.0,0.0,74,0.00,CLR,,0.00,WeatherDisplay:10.37,2013-01-03 15:58:00,
2013-01-03 08:03:00,0.5,-5.6,30.60,WSW,241,0.0,0.0,75,0.00,CLR,,0.00,WeatherDisplay:10.37,2013-01-03 16:03:00,
2013-01-03 08:08:00,2.0,-3.3,30.59,WSW,241,0.0,0.0,78,0.00,CLR,,0.00,WeatherDisplay:10.37,2013-01-03 16:08:00,
2013-01-03 08:13:00,3.0,-2.6,30.59,WSW,241,2.3,2.3,77,0.00,CLR,,0.00,WeatherDisplay:10.37,2013-01-03 16:13:00,
2013-01-03 08:18:00,3.7,-1.9,30.58,SW,233,3.0,3.0,77,0.00,CLR,,0.00,WeatherDisplay:10.37,2013-01-03 16:18:00,
2013-01-03 08:23:00,3.7,-2.2,30.58,SW,233,2.3,2.3,76,0.00,CLR,,0.00,WeatherDisplay:10.37,2013-01-03 16:23:00,
2013-01-03 08:28:00,4.3,-1.0,30.58,SW,233,0.0,0.0,78,0.00,CLR,,0.00,WeatherDisplay:10.37,2013-01-03 16:28:00,
2013-01-03 08:33:00,4.8,-0.6,30.58,SW,233,0.0,0.0,78,0.00,CLR,,0.00,WeatherDisplay:10.37,2013-01-03 16:33:00,
2013-01-03 08:38:00,5.6,0.2,30.57,SW,233,0.0,0.0,78,0.00,CLR,,0.00,WeatherDisplay:10.37,2013-01-03 16:38:00,
2013-01-03 08:43:00,5.4,-0.2,30.58,ENE,66,1.1,1.1,77,0.00,CLR,,0.00,WeatherDisplay:10.37,2013-01-03 16:43:00,
2013-01-03 08:48:00,5.2,-0.4,30.59,ENE,66,0.0,0.0,77,0.00,CLR,,0.00,WeatherDisplay:10.37,2013-01-03 16:48:00,
2013-01-03 08:53:00,5.2,-0.4,30.59,ENE,66,0.0,0.0,77,0.00,CLR,,0.00,WeatherDisplay:10.37,2013-01-03 16:53:00,
2013-01-03 08:58:00,5.2,-0.4,30.59,ENE,66,0.0,0.0,77,0.00,CLR,,0.00,WeatherDisplay:10.37,2013-01-03 16:58:00,
2013-01-03 09:03:00,5.4,-0.2,30.59,ENE,66,0.0,0.0,77,0.00,CLR,,0.00,WeatherDisplay:10.37,2013-01-03 17:03:00,
2013-01-03 09:08:00,6.0,0.3,30.58,ENE,66,0.0,0.0,77,0.00,CLR,,0.00,WeatherDisplay:10.37,2013-01-03 17:08:00,
2013-01-03 09:13:00,7.2,2.1,30.58,ENE,66,0.0,0.0,79,0.00,CLR,,0.00,WeatherDisplay:10.37,2013-01-03 17:13:00,
2013-01-03 09:18:00,9.0,4.1,30.57,ENE,66,2.0,2.0,80,0.00,CLR,,0.00,WeatherDisplay:10.37,2013-01-03 17:18:00,
2013-01-03 09:23:00,10.4,5.5,30.56,ENE,66,2.3,2.3,80,0.00,CLR,,0.00,WeatherDisplay:10.37,2013-01-03 17:23:00,
2013-01-03 09:28:00,11.6,6.9,30.55,East,97,1.1,1.1,81,0.00,CLR,,0.00,WeatherDisplay:10.37,2013-01-03 17:28:00,
2013-01-03 09:33:00,12.1,7.4,30.55,SSE,152,2.3,2.3,81,0.00,CLR,,0.00,WeatherDisplay:10.37,2013-01-03 17:33:00,
2013-01-03 09:38:00,12.6,7.9,30.55,South,185,2.3,2.3,81,0.00,CLR,,0.00,WeatherDisplay:10.37,2013-01-03 17:38:00,
2013-01-03 09:43:00,13.3,8.8,30.55,South,185,0.0,0.0,82,0.00,CLR,,0.00,WeatherDisplay:10.37,2013-01-03 17:43:00,
2013-01-03 09:48:00,14.1,9.6,30.54,South,184,0.0,0.0,82,0.00,CLR,,0.00,WeatherDisplay:10.37,2013-01-03 17:48:00,
2013-01-03 09:53:00,15.1,10.6,30.55,South,185,2.3,2.3,82,0.00,CLR,,0.00,WeatherDisplay:10.37,2013-01-03 17:53:00,
2013-01-03 09:58:00,15.9,11.4,30.54,South,185,1.1,0.0,82,0.00,CLR,,0.00,WeatherDisplay:10.37,2013-01-03 17:58:00,
2013-01-03 10:03:00,16.9,12.4,30.53,SE,130,3.0,3.0,82,0.00,CLR,,0.00,WeatherDisplay:10.37,2013-01-03 18:03:00,
2013-01-03 10:08:00,18.0,13.4,30.54,ESE,123,1.0,1.0,82,0.00,CLR,,0.00,WeatherDisplay:10.37,2013-01-03 18:08:00,
2013-01-03 10:13:00,18.8,13.9,30.52,ESE,102,5.0,5.0,81,0.00,CLR,,0.00,WeatherDisplay:10.37,2013-01-03 18:13:00,
2013-01-03 10:18:00,18.9,13.5,30.52,ESE,104,4.6,4.6,79,0.00,CLR,,0.00,WeatherDisplay:10.37,2013-01-03 18:18:00,
2013-01-03 10:23:00,19.1,13.4,30.52,ESE,104,7.0,7.0,78,0.00,CLR,,0.00,WeatherDisplay:10.37,2013-01-03 18:23:00,
2013-01-03 10:28:00,19.2,12.9,30.52,ESE,120,8.1,8.1,76,0.00,CLR,,0.00,WeatherDisplay:10.37,2013-01-03 18:28:00,
2013-01-03 10:33:00,19.5,13.2,30.52,SE,133,5.8,5.8,76,0.00,CLR,,0.00,WeatherDisplay:10.37,2013-01-03 18:33:00,
2013-01-03 10:38:00,20.0,12.7,30.51,SE,141,11.5,11.5,73,0.00,CLR,,0.00,WeatherDisplay:10.37,2013-01-03 18:38:00,
2013-01-03 10:43:00,20.6,13.3,30.51,SE,124,4.6,4.6,73,0.00,CLR,,0.00,WeatherDisplay:10.37,2013-01-03 18:43:00,
2013-01-03 10:48:00,21.3,13.4,30.50,SE,124,8.0,8.0,71,0.00,CLR,,0.00,WeatherDisplay:10.37,2013-01-03 18:48:00,
2013-01-03 10:53:00,21.8,12.2,30.50,ESE,117,8.0,8.0,66,0.00,CLR,,0.00,WeatherDisplay:10.37,2013-01-03 18:53:00,
2013-01-03 10:58:00,21.9,10.9,30.50,ESE,119,10.4,10.4,62,0.00,CLR,,0.00,WeatherDisplay:10.37,2013-01-03 18:58:00,
2013-01-03 11:03:00,22.2,10.4,30.49,SE,134,5.8,5.8,60,0.00,CLR,,0.00,WeatherDisplay:10.37,2013-01-03 19:03:00,
2013-01-03 11:08:00,22.9,9.9,30.49,ESE,103,8.1,8.1,57,0.00,CLR,,0.00,WeatherDisplay:10.37,2013-01-03 19:08:00,
2013-01-03 11:13:00,23.6,9.8,30.48,ESE,121,8.1,8.1,55,0.00,CLR,,0.00,WeatherDisplay:10.37,2013-01-03 19:13:00,
2013-01-03 11:18:00,23.8,9.1,30.47,SE,138,7.0,7.0,53,0.00,CLR,,0.00,WeatherDisplay:10.37,2013-01-03 19:18:00,
2013-01-03 11:51:00,25.3,6.9,30.46,East,93,11.5,11.5,45,0.00,CLR,,0.00,WeatherDisplay:10.37,2013-01-03 19:51:00,
2013-01-03 11:57:00,25.3,6.9,30.45,ESE,104,8.1,8.1,45,0.00,CLR,,0.00,WeatherDisplay:10.37,2013-01-03 19:57:00,
2013-01-03 12:02:00,25.8,6.9,30.46,ESE,106,7.0,7.0,44,0.00,CLR,,0.00,WeatherDisplay:10.37,2013-01-03 20:02:00,
2013-01-03 12:07:00,26.1,7.6,30.46,ESE,114,3.0,3.0,45,0.00,CLR,,0.00,WeatherDisplay:10.37,2013-01-03 20:07:00,
2013-01-03 12:12:00,26.4,7.4,30.45,East,96,3.5,3.5,44,0.00,CLR,,0.00,WeatherDisplay:10.37,2013-01-03 20:12:00,
2013-01-03 12:17:00,26.3,7.3,30.45,East,92,8.1,8.1,44,0.00,CLR,,0.00,WeatherDisplay:10.37,2013-01-03 20:17:00,
2013-01-03 12:22:00,26.9,7.9,30.45,ESE,112,5.0,5.0,44,0.00,CLR,,0.00,WeatherDisplay:10.37,2013-01-03 20:22:00,
2013-01-03 12:27:00,27.0,7.4,30.44,ESE,109,5.8,5.8,43,0.00,CLR,,0.00,WeatherDisplay:10.37,2013-01-03 20:27:00,
2013-01-03 12:32:00,27.3,7.7,30.44,ESE,116,5.8,5.8,43,0.00,CLR,,0.00,WeatherDisplay:10.37,2013-01-03 20:32:00,
2013-01-03 12:37:00,28.1,9.0,30.43,SE,143,3.5,3.5,44,0.00,CLR,,0.00,WeatherDisplay:10.37,2013-01-03 20:37:00,
2013-01-03 12:42:00,28.2,7.5,30.43,East,99,7.0,7.0,41,0.00,CLR,,0.00,WeatherDisplay:10.37,2013-01-03 20:42:00,
2013-01-03 12:47:00,28.1,7.9,30.43,ESE,104,5.8,5.8,42,0.00,CLR,,0.00,WeatherDisplay:10.37,2013-01-03 20:47:00,
2013-01-03 12:52:00,28.5,8.3,30.43,ESE,117,3.5,3.5,42,0.00,CLR,,0.00,WeatherDisplay:10.37,2013-01-03 20:52:00,
2013-01-03 12:57:00,28.7,8.5,30.43,ESE,120,6.0,6.0,42,0.00,CLR,,0.00,WeatherDisplay:10.37,2013-01-03 20:57:00,
2013-01-03 13:02:00,28.8,8.0,30.42,ESE,106,6.9,6.9,41,0.00,CLR,,0.00,WeatherDisplay:10.37,2013-01-03 21:02:00,
2013-01-03 13:07:00,28.7,8.5,30.42,ESE,113,3.5,3.5,42,0.00,CLR,,0.00,WeatherDisplay:10.37,2013-01-03 21:07:00,
2013-01-03 13:12:00,28.5,8.3,30.42,ESE,123,5.0,5.0,42,0.00,CLR,,0.00,WeatherDisplay:10.37,2013-01-03 21:12:00,
2013-01-03 13:17:00,28.8,9.1,30.42,East,97,5.8,5.8,43,0.00,CLR,,0.00,WeatherDisplay:10.37,2013-01-03 21:17:00,
2013-01-03 13:22:00,29.3,8.5,30.42,ESE,103,3.5,3.5,41,0.00,CLR,,0.00,WeatherDisplay:10.37,2013-01-03 21:22:00,
2013-01-03 13:27:00,29.5,9.2,30.42,ESE,102,3.5,3.5,42,0.00,CLR,,0.00,WeatherDisplay:10.37,2013-01-03 21:27:00,
2013-01-03 13:32:00,29.7,8.8,30.42,East,93,3.0,3.0,41,0.00,CLR,,0.00,WeatherDisplay:10.37,2013-01-03 21:32:00,
2013-01-03 13:37:00,29.3,8.5,30.41,SE,127,8.1,8.1,41,0.00,CLR,,0.00,WeatherDisplay:10.37,2013-01-03 21:37:00,
2013-01-03 13:43:00,29.0,9.3,30.41,ESE,109,6.9,6.9,43,0.00,CLR,,0.00,WeatherDisplay:10.37,2013-01-03 21:43:00,
2013-01-03 13:49:00,29.4,9.1,30.41,East,80,10.4,10.4,42,0.00,CLR,,0.00,WeatherDisplay:10.37,2013-01-03 21:49:00,
2013-01-03 13:54:00,29.1,9.4,30.41,East,96,5.8,5.8,43,0.00,CLR,,0.00,WeatherDisplay:10.37,2013-01-03 21:54:00,
2013-01-03 13:59:00,28.8,8.6,30.41,East,95,10.0,10.0,42,0.00,CLR,,0.00,WeatherDisplay:10.37,2013-01-03 21:59:00,
2013-01-03 14:04:00,29.1,9.9,30.41,South,175,3.0,3.0,44,0.00,CLR,,0.00,WeatherDisplay:10.37,2013-01-03 22:04:00,
2013-01-03 14:09:00,29.3,9.5,30.40,ESE,103,8.1,8.1,43,0.00,CLR,,0.00,WeatherDisplay:10.37,2013-01-03 22:09:00,
2013-01-03 14:14:00,29.3,9.5,30.41,SE,140,8.1,8.1,43,0.00,CLR,,0.00,WeatherDisplay:10.37,2013-01-03 22:14:00,
2013-01-03 14:19:00,29.0,9.8,30.41,SE,133,5.0,5.0,44,0.00,CLR,,0.00,WeatherDisplay:10.37,2013-01-03 22:19:00,
2013-01-03 14:24:00,28.8,9.6,30.40,ESE,102,6.9,6.9,44,0.00,CLR,,0.00,WeatherDisplay:10.37,2013-01-03 22:24:00,
2013-01-03 14:29:00,28.8,10.1,30.40,East,99,6.0,6.0,45,0.00,CLR,,0.00,WeatherDisplay:10.37,2013-01-03 22:29:00,
2013-01-03 14:34:00,29.1,9.9,30.40,ESE,102,4.0,4.0,44,0.01,RA,,0.01,WeatherDisplay:10.37,2013-01-03 22:34:00,
2013-01-03 14:39:00,29.5,10.2,30.40,East,88,6.0,6.0,44,0.01,RA,,0.01,WeatherDisplay:10.37,2013-01-03 22:39:00,
2013-01-03 14:44:00,30.1,10.8,30.40,East,97,7.0,7.0,44,0.01,CLR,,0.01,WeatherDisplay:10.37,2013-01-03 22:44:00,
2013-01-03 14:49:00,30.4,10.5,30.40,ESE,106,8.0,8.0,43,0.01,CLR,,0.01,WeatherDisplay:10.37,2013-01-03 22:49:00,
2013-01-03 14:54:00,30.4,10.5,30.40,ESE,104,7.0,7.0,43,0.01,CLR,,0.01,WeatherDisplay:10.37,2013-01-03 22:54:00,
2013-01-03 14:59:00,29.8,10.0,30.40,East,89,8.1,8.1,43,0.01,CLR,,0.01,WeatherDisplay:10.37,2013-01-03 22:59:00,
2013-01-03 15:04:00,29.5,9.7,30.41,ENE,73,6.9,6.9,43,0.01,CLR,,0.01,WeatherDisplay:10.37,2013-01-03 23:04:00,
2013-01-03 15:09:00,29.5,10.2,30.41,ESE,114,6.0,6.0,44,0.01,CLR,,0.01,WeatherDisplay:10.37,2013-01-03 23:09:00,
2013-01-03 15:14:00,29.7,10.4,30.41,ESE,110,4.6,4.6,44,0.01,CLR,,0.01,WeatherDisplay:10.37,2013-01-03 23:14:00,
2013-01-03 15:19:00,29.7,10.9,30.41,East,90,2.0,2.0,45,0.01,CLR,,0.01,WeatherDisplay:10.37,2013-01-03 23:19:00,
2013-01-03 15:24:00,29.7,10.4,30.41,ESE,102,3.5,3.5,44,0.01,CLR,,0.01,WeatherDisplay:10.37,2013-01-03 23:24:00,
2013-01-03 15:29:00,29.5,11.2,30.41,ESE,107,2.3,2.3,46,0.01,CLR,,0.01,WeatherDisplay:10.37,2013-01-03 23:29:00,
2013-01-03 15:34:00,29.5,11.2,30.41,ENE,65,5.0,5.0,46,0.00,CLR,,0.01,WeatherDisplay:10.37,2013-01-03 23:34:00,
2013-01-03 15:39:00,29.7,10.9,30.41,ESE,109,3.0,3.0,45,0.00,CLR,,0.01,WeatherDisplay:10.37,2013-01-03 23:39:00,
2013-01-03 15:44:00,30.0,11.2,30.42,ESE,109,2.0,2.0,45,0.00,CLR,,0.01,WeatherDisplay:10.37,2013-01-03 23:44:00,
2013-01-03 15:49:00,30.1,11.3,30.42,SE,130,3.0,3.0,45,0.00,CLR,,0.01,WeatherDisplay:10.37,2013-01-03 23:49:00,
2013-01-03 15:54:00,30.1,11.3,30.41,ESE,116,3.0,3.0,45,0.00,CLR,,0.01,WeatherDisplay:10.37,2013-01-03 23:54:00,
2013-01-03 15:59:00,30.0,10.7,30.41,SE,136,4.6,4.6,44,0.00,CLR,,0.01,WeatherDisplay:10.37,2013-01-03 23:59:00,
2013-01-03 16:04:00,29.8,11.0,30.42,SE,127,2.3,0.0,45,0.00,CLR,,0.01,WeatherDisplay:10.37,2013-01-04 00:04:00,
2013-01-03 16:09:00,29.5,10.7,30.42,East,97,5.8,5.8,45,0.00,CLR,,0.01,WeatherDisplay:10.37,2013-01-04 00:09:00,
2013-01-03 16:14:00,29.3,10.6,30.42,SE,124,3.5,3.5,45,0.00,CLR,,0.01,WeatherDisplay:10.37,2013-01-04 00:14:00,
2013-01-03 16:19:00,28.8,10.6,30.42,ESE,104,6.0,6.0,46,0.00,CLR,,0.01,WeatherDisplay:10.37,2013-01-04 00:19:00,
2013-01-03 16:24:00,28.5,10.3,30.42,East,100,5.0,5.0,46,0.00,CLR,,0.01,WeatherDisplay:10.37,2013-01-04 00:24:00,
2013-01-03 16:29:00,28.2,10.0,30.42,East,80,1.1,1.1,46,0.00,CLR,,0.01,WeatherDisplay:10.37,2013-01-04 00:29:00,
2013-01-03 16:34:00,27.8,10.2,30.42,East,96,2.0,2.0,47,0.00,CLR,,0.01,WeatherDisplay:10.37,2013-01-04 00:34:00,
2013-01-03 16:39:00,27.3,10.2,30.44,East,96,1.1,1.1,48,0.00,CLR,,0.01,WeatherDisplay:10.37,2013-01-04 00:39:00,
2013-01-03 16:44:00,27.0,9.9,30.44,East,96,1.1,1.1,48,0.00,CLR,,0.01,WeatherDisplay:10.37,2013-01-04 00:44:00,
2013-01-03 16:49:00,26.7,10.1,30.44,East,96,1.1,0.0,49,0.00,CLR,,0.01,WeatherDisplay:10.37,2013-01-04 00:49:00,
2013-01-03 16:54:00,26.4,10.3,30.44,East,96,1.0,1.0,50,0.00,CLR,,0.01,WeatherDisplay:10.37,2013-01-04 00:54:00,
2013-01-03 16:59:00,26.0,9.9,30.44,East,96,2.3,2.3,50,0.00,CLR,,0.01,WeatherDisplay:10.37,2013-01-04 00:59:00,
2013-01-03 17:04:00,25.7,10.0,30.46,East,96,0.0,0.0,51,0.00,CLR,,0.01,WeatherDisplay:10.37,2013-01-04 01:04:00,
2013-01-03 17:09:00,25.4,10.2,30.46,East,96,0.0,0.0,52,0.00,CLR,,0.01,WeatherDisplay:10.37,2013-01-04 01:09:00,
2013-01-03 17:14:00,25.1,9.9,30.46,East,96,1.1,1.1,52,0.00,CLR,,0.01,WeatherDisplay:10.37,2013-01-04 01:14:00,
2013-01-03 17:19:00,25.0,10.3,30.46,East,96,0.0,0.0,53,0.00,CLR,,0.01,WeatherDisplay:10.37,2013-01-04 01:19:00,
2013-01-03 17:24:00,24.7,10.0,30.46,East,96,0.0,0.0,53,0.00,CLR,,0.01,WeatherDisplay:10.37,2013-01-04 01:24:00,
2013-01-03 17:29:00,24.4,9.7,30.47,East,96,2.3,2.3,53,0.00,CLR,,0.01,WeatherDisplay:10.37,2013-01-04 01:29:00,
2013-01-03 17:34:00,24.2,9.9,30.48,East,96,2.3,0.0,54,0.00,CLR,,0.01,WeatherDisplay:10.37,2013-01-04 01:34:00,
2013-01-03 17:39:00,23.9,9.6,30.48,East,96,1.0,1.0,54,0.00,CLR,,0.01,WeatherDisplay:10.37,2013-01-04 01:39:00,
2013-01-03 17:44:00,23.8,10.0,30.48,East,96,0.0,0.0,55,0.00,CLR,,0.01,WeatherDisplay:10.37,2013-01-04 01:44:00,
2013-01-03 17:49:00,23.6,9.8,30.48,East,96,2.3,2.3,55,0.00,CLR,,0.01,WeatherDisplay:10.37,2013-01-04 01:49:00,
2013-01-03 17:54:00,23.5,9.7,30.48,East,96,1.1,0.0,55,0.00,CLR,,0.01,WeatherDisplay:10.37,2013-01-04 01:54:00,
2013-01-03 17:59:00,23.0,9.6,30.48,East,96,2.3,2.3,56,0.00,CLR,,0.01,WeatherDisplay:10.37,2013-01-04 01:59:00,
2013-01-03 18:04:00,22.7,9.3,30.49,East,96,2.3,2.3,56,0.00,CLR,,0.01,WeatherDisplay:10.37,2013-01-04 02:04:00,
2013-01-03 18:09:00,22.4,9.1,30.49,East,96,1.1,1.1,56,0.00,CLR,,0.01,WeatherDisplay:10.37,2013-01-04 02:09:00,
2013-01-03 18:14:00,22.1,9.2,30.50,East,96,1.1,0.0,57,0.00,CLR,,0.01,WeatherDisplay:10.37,2013-01-04 02:14:00,
2013-01-03 18:19:00,21.8,9.3,30.50,East,96,2.3,2.3,58,0.00,CLR,,0.01,WeatherDisplay:10.37,2013-01-04 02:19:00,
2013-01-03 18:24:00,21.4,8.9,30.50,East,96,2.0,2.0,58,0.00,CLR,,0.01,WeatherDisplay:10.37,2013-01-04 02:24:00,
2013-01-03 18:29:00,21.1,8.6,30.51,East,96,1.1,1.1,58,0.00,CLR,,0.01,WeatherDisplay:10.37,2013-01-04 02:29:00,
2013-01-03 18:34:00,21.0,8.9,30.51,East,96,3.5,3.5,59,0.00,CLR,,0.01,WeatherDisplay:10.37,2013-01-04 02:34:00,
2013-01-03 18:39:00,20.6,8.5,30.51,East,96,3.0,3.0,59,0.00,CLR,,0.01,WeatherDisplay:10.37,2013-01-04 02:39:00,
2013-01-03 18:44:00,20.2,8.1,30.51,East,96,0.0,0.0,59,0.00,CLR,,0.01,WeatherDisplay:10.37,2013-01-04 02:44:00,
2013-01-03 18:49:00,20.2,8.5,30.52,East,96,1.0,1.0,60,0.00,CLR,,0.01,WeatherDisplay:10.37,2013-01-04 02:49:00,
2013-01-03 18:54:00,20.2,8.5,30.52,East,96,2.3,2.3,60,0.00,CLR,,0.01,WeatherDisplay:10.37,2013-01-04 02:54:00,
2013-01-03 18:59:00,20.8,8.7,30.51,East,96,4.6,4.6,59,0.00,CLR,,0.01,WeatherDisplay:10.37,2013-01-04 02:59:00,
2013-01-03 19:04:00,20.8,8.7,30.51,East,100,1.1,0.0,59,0.00,CLR,,0.01,WeatherDisplay:10.37,2013-01-04 03:04:00,
2013-01-03 19:09:00,20.6,8.5,30.51,East,100,2.3,2.3,59,0.00,CLR,,0.01,WeatherDisplay:10.37,2013-01-04 03:09:00,
2013-01-03 19:14:00,20.3,8.2,30.51,East,100,1.1,1.1,59,0.00,CLR,,0.01,WeatherDisplay:10.37,2013-01-04 03:14:00,
2013-01-03 19:19:00,20.3,8.6,30.53,East,100,2.0,2.0,60,0.00,CLR,,0.01,WeatherDisplay:10.37,2013-01-04 03:19:00,
2013-01-03 19:24:00,20.5,8.4,30.52,East,100,1.1,1.1,59,0.00,CLR,,0.01,WeatherDisplay:10.37,2013-01-04 03:24:00,
2013-01-03 19:29:00,20.6,8.5,30.52,East,100,2.3,2.3,59,0.00,CLR,,0.01,WeatherDisplay:10.37,2013-01-04 03:29:00,
2013-01-03 19:34:00,20.6,8.5,30.52,East,100,2.0,2.0,59,0.00,CLR,,0.01,WeatherDisplay:10.37,2013-01-04 03:34:00,
2013-01-03 19:40:00,21.0,8.9,30.52,East,100,2.3,2.3,59,0.00,CLR,,0.01,WeatherDisplay:10.37,2013-01-04 03:40:00,
2013-01-03 19:45:00,21.0,8.9,30.52,East,100,0.0,0.0,59,0.00,CLR,,0.01,WeatherDisplay:10.37,2013-01-04 03:45:00,
2013-01-03 19:50:00,20.8,8.7,30.52,East,100,3.0,3.0,59,0.00,CLR,,0.01,WeatherDisplay:10.37,2013-01-04 03:50:00,
2013-01-03 19:55:00,20.6,8.9,30.52,East,93,2.3,2.3,60,0.00,CLR,,0.01,WeatherDisplay:10.37,2013-01-04 03:55:00,
2013-01-03 20:00:00,20.2,8.5,30.53,ENE,66,3.5,3.5,60,0.00,CLR,,0.01,WeatherDisplay:10.37,2013-01-04 04:00:00,
2013-01-03 20:05:00,20.0,8.3,30.52,ENE,66,2.3,2.3,60,0.00,CLR,,0.01,WeatherDisplay:10.37,2013-01-04 04:05:00,
2013-01-03 20:10:00,19.9,8.6,30.52,ENE,66,1.1,1.1,61,0.00,CLR,,0.01,WeatherDisplay:10.37,2013-01-04 04:10:00,
2013-01-03 20:15:00,19.5,8.2,30.52,East,99,2.3,2.3,61,0.00,CLR,,0.01,WeatherDisplay:10.37,2013-01-04 04:15:00,
2013-01-03 20:20:00,18.9,8.0,30.52,ESE,106,3.5,3.5,62,0.00,CLR,,0.01,WeatherDisplay:10.37,2013-01-04 04:20:00,
2013-01-03 20:25:00,18.8,8.3,30.52,ESE,106,1.1,1.1,63,0.00,CLR,,0.01,WeatherDisplay:10.37,2013-01-04 04:25:00,
2013-01-03 20:30:00,18.8,8.3,30.52,NE,47,3.0,3.0,63,0.00,CLR,,0.01,WeatherDisplay:10.37,2013-01-04 04:30:00,
2013-01-03 20:35:00,18.8,8.3,30.52,East,82,3.5,3.5,63,0.00,CLR,,0.01,WeatherDisplay:10.37,2013-01-04 04:35:00,
2013-01-03 20:40:00,18.9,8.0,30.52,East,100,3.0,3.0,62,0.00,CLR,,0.01,WeatherDisplay:10.37,2013-01-04 04:40:00,
2013-01-03 20:45:00,18.9,8.0,30.53,ESE,106,2.3,0.0,62,0.00,CLR,,0.01,WeatherDisplay:10.37,2013-01-04 04:45:00,
2013-01-03 20:50:00,19.1,8.6,30.52,ESE,102,5.0,5.0,63,0.00,CLR,,0.01,WeatherDisplay:10.37,2013-01-04 04:50:00,
2013-01-03 20:55:00,19.2,8.3,30.53,ESE,102,2.3,2.3,62,0.00,CLR,,0.01,WeatherDisplay:10.37,2013-01-04 04:55:00,
2013-01-03 21:01:00,19.4,8.5,30.53,ESE,102,2.3,2.3,62,0.00,CLR,,0.01,WeatherDisplay:10.37,2013-01-04 05:01:00,
2013-01-03 21:03:00,19.4,8.5,30.48,ESE,102,3.5,3.5,62,0.00,CLR,,0.01,WeatherDisplay:10.37,2013-01-04 05:03:00,
2013-01-03 21:07:00,19.4,8.5,30.48,SE,128,3.5,3.5,62,0.00,CLR,,0.01,WeatherDisplay:10.37,2013-01-04 05:07:00,
2013-01-03 21:10:00,19.5,8.6,30.48,SE,128,1.0,1.0,62,0.00,CLR,,0.01,WeatherDisplay:10.37,2013-01-04 05:10:00,
2013-01-03 21:15:00,19.5,8.6,30.48,SE,127,2.3,2.3,62,0.00,CLR,,0.01,WeatherDisplay:10.37,2013-01-04 05:15:00,
2013-01-03 21:20:00,19.4,8.5,30.49,SE,127,1.1,0.0,62,0.00,CLR,,0.01,WeatherDisplay:10.37,2013-01-04 05:20:00,
2013-01-03 21:25:00,19.4,8.5,30.49,SE,126,2.3,2.3,62,0.00,CLR,,0.01,WeatherDisplay:10.37,2013-01-04 05:25:00,
2013-01-03 21:30:00,19.5,8.6,30.48,ESE,121,3.0,0.0,62,0.00,CLR,,0.01,WeatherDisplay:10.37,2013-01-04 05:30:00,
2013-01-03 21:35:00,19.7,8.4,30.48,ESE,121,2.3,2.3,61,0.00,CLR,,0.01,WeatherDisplay:10.37,2013-01-04 05:35:00,
2013-01-03 21:40:00,19.9,8.6,30.49,ESE,121,2.3,2.3,61,0.00,CLR,,0.01,WeatherDisplay:10.37,2013-01-04 05:40:00,
2013-01-03 21:45:00,20.0,8.7,30.49,ESE,116,3.5,3.5,61,0.00,CLR,,0.01,WeatherDisplay:10.37,2013-01-04 05:45:00,
2013-01-03 21:50:00,20.0,8.7,30.49,SSE,150,6.0,6.0,61,0.00,CLR,,0.01,WeatherDisplay:10.37,2013-01-04 05:50:00,
2013-01-03 21:55:00,20.0,8.7,30.49,SE,136,4.0,4.0,61,0.00,CLR,,0.01,WeatherDisplay:10.37,2013-01-04 05:55:00,
2013-01-03 22:00:00,20.6,9.3,30.48,SE,144,6.0,6.0,61,0.00,CLR,,0.01,WeatherDisplay:10.37,2013-01-04 06:00:00,
2013-01-03 22:05:00,21.3,9.9,30.45,SE,131,7.0,7.0,61,0.00,CLR,,0.01,WeatherDisplay:10.37,2013-01-04 06:05:00,
2013-01-03 22:10:00,21.6,9.8,30.44,SSE,162,6.0,6.0,60,0.00,CLR,,0.01,WeatherDisplay:10.37,2013-01-04 06:10:00,
2013-01-03 22:15:00,21.8,10.0,30.44,SE,133,5.0,8.0,60,0.00,CLR,,0.01,WeatherDisplay:10.37,2013-01-04 06:15:00,
2013-01-03 22:20:00,21.7,9.9,30.45,SE,137,5.0,8.0,60,0.00,CLR,,0.01,WeatherDisplay:10.37,2013-01-04 06:20:00,
2013-01-03 22:26:00,21.3,9.9,30.46,SSE,147,5.8,5.8,61,0.00,CLR,,0.01,WeatherDisplay:10.37,2013-01-04 06:26:00,
2013-01-03 22:31:00,21.0,10.0,30.46,SE,124,7.0,7.0,62,0.00,CLR,,0.01,WeatherDisplay:10.37,2013-01-04 06:31:00,
2013-01-03 22:36:00,21.0,10.0,30.46,SE,140,5.8,5.8,62,0.00,CLR,,0.01,WeatherDisplay:10.37,2013-01-04 06:36:00,
2013-01-03 22:41:00,21.0,10.4,30.46,SE,137,3.5,3.5,63,0.00,CLR,,0.01,WeatherDisplay:10.37,2013-01-04 06:41:00,
2013-01-03 22:46:00,21.3,10.7,30.47,SE,138,3.5,3.5,63,0.00,CLR,,0.01,WeatherDisplay:10.37,2013-01-04 06:46:00,
2013-01-03 22:51:00,21.3,10.7,30.47,East,99,4.6,4.6,63,0.00,CLR,,0.01,WeatherDisplay:10.37,2013-01-04 06:51:00,
2013-01-03 22:56:00,21.6,10.9,30.47,SE,131,3.5,3.5,63,0.00,CLR,,0.01,WeatherDisplay:10.37,2013-01-04 06:56:00,
2013-01-03 23:01:00,21.6,10.6,30.46,SE,127,5.0,5.0,62,0.00,CLR,,0.01,WeatherDisplay:10.37,2013-01-04 07:01:00,
2013-01-03 23:06:00,21.3,10.7,30.45,SSE,160,6.9,6.9,63,0.00,CLR,,0.01,WeatherDisplay:10.37,2013-01-04 07:06:00,
2013-01-03 23:11:00,21.3,10.7,30.45,SE,138,5.8,5.8,63,0.00,CLR,,0.01,WeatherDisplay:10.37,2013-01-04 07:11:00,
2013-01-03 23:16:00,21.3,10.7,30.45,SE,140,6.9,6.9,63,0.00,CLR,,0.01,WeatherDisplay:10.37,2013-01-04 07:16:00,
2013-01-03 23:22:00,21.0,10.7,30.45,SE,126,4.6,4.6,64,0.00,CLR,,0.01,WeatherDisplay:10.37,2013-01-04 07:22:00,
2013-01-03 23:27:00,20.8,10.5,30.45,ESE,106,3.5,3.5,64,0.00,CLR,,0.01,WeatherDisplay:10.37,2013-01-04 07:27:00,
2013-01-03 23:32:00,20.8,10.5,30.45,ENE,78,5.0,5.0,64,0.00,CLR,,0.01,WeatherDisplay:10.37,2013-01-04 07:32:00,
2013-01-03 23:37:00,20.3,10.1,30.45,East,79,4.0,4.0,64,0.00,CLR,,0.01,WeatherDisplay:10.37,2013-01-04 07:37:00,
2013-01-03 23:42:00,20.0,9.8,30.45,SE,124,4.6,4.6,64,0.00,CLR,,0.01,WeatherDisplay:10.37,2013-01-04 07:42:00,
2013-01-03 23:47:00,19.7,9.5,30.46,SE,124,2.0,2.0,64,0.00,CLR,,0.01,WeatherDisplay:10.37,2013-01-04 07:47:00,
2013-01-03 23:52:00,18.9,8.4,30.47,ESE,109,8.1,8.1,63,0.00,CLR,,0.01,WeatherDisplay:10.37,2013-01-04 07:52:00,
2013-01-03 23:58:00,18.4,8.2,30.47,ESE,123,5.8,5.8,64,0.00,CLR,,0.01,WeatherDisplay:10.37,2013-01-04 07:58:00,